Terminal Aerodrome Forecast
Issued by NWS

Home | Current Version | Previous Version | Text Only | Print | Product List | Glossary On
Versions: 1 2 3 4 5 6 7 8 9 10 11 12 13 14 15
809
FTUS45 KTFX 241120
TAFLWT
TAF
KLWT 241120Z 2412/2512 28018G30KT P6SM SCT045
     FM242300 27012KT P6SM FEW050
     FM250500 23009KT P6SM FEW080=

USA.gov is the U.S. government's official web portal to all federal, state and local government web resources and services.